createdAt,value
2019-02-04T00:02:12.363Z,81.14
2019-02-04T00:04:42.269Z,81.24
2019-02-04T00:07:12.236Z,81.23
2019-02-04T00:09:42.156Z,81.20
2019-02-04T00:12:12.166Z,81.02
2019-02-04T00:14:42.063Z,81.27
2019-02-04T00:17:13.213Z,81.67
2019-02-04T00:19:43.197Z,81.52
2019-02-04T00:22:13.568Z,81.57
2019-02-04T00:24:43.593Z,81.77
2019-02-04T00:27:13.616Z,81.61
2019-02-04T00:29:43.523Z,81.66
2019-02-04T00:32:13.464Z,81.70
2019-02-04T00:34:43.347Z,81.61
2019-02-04T00:37:13.278Z,81.67
2019-02-04T00:39:43.280Z,81.52
2019-02-04T00:42:13.181Z,81.14
2019-02-04T00:44:43.154Z,81.20
2019-02-04T00:47:13.129Z,81.23
2019-02-04T00:49:43.309Z,81.34
2019-02-04T00:52:13.271Z,81.42
2019-02-04T00:54:43.235Z,81.49
2019-02-04T00:57:13.271Z,81.61
2019-02-04T00:59:43.253Z,81.69
2019-02-04T01:02:13.475Z,81.52
2019-02-04T01:04:43.492Z,81.61
2019-02-04T01:07:13.404Z,81.59
2019-02-04T01:09:43.319Z,81.63
2019-02-04T01:12:13.196Z,81.97
2019-02-04T01:14:43.394Z,82.06
2019-02-04T01:17:15.170Z,82.18
2019-02-04T01:19:45.112Z,82.02
2019-02-04T01:22:16.409Z,81.76
2019-02-04T01:24:48.249Z,81.85
2019-02-04T01:27:18.012Z,82.24
2019-02-04T01:29:48.267Z,82.36
2019-02-04T01:32:18.093Z,82.34
2019-02-04T01:34:48.981Z,82.31
2019-02-04T01:37:19.030Z,82.33
2019-02-04T01:39:48.892Z,82.16
2019-02-04T01:42:19.250Z,82.35
2019-02-04T01:44:49.198Z,82.41
2019-02-04T01:47:19.171Z,82.59
2019-02-04T01:49:49.064Z,82.43
2019-02-04T01:52:18.955Z,82.41
2019-02-04T01:54:48.825Z,82.57
2019-02-04T01:57:18.639Z,82.80
2019-02-04T01:59:48.503Z,82.86
2019-02-04T02:02:18.380Z,83.00
2019-02-04T02:04:48.343Z,83.00
2019-02-04T02:07:18.309Z,82.89
2019-02-04T02:09:48.659Z,82.83
2019-02-04T02:12:18.830Z,83.03
2019-02-04T02:14:50.565Z,83.13
2019-02-04T02:17:26.488Z,83.32
2019-02-04T02:19:52.069Z,83.25
2019-02-04T02:22:22.403Z,82.98
2019-02-04T02:24:52.327Z,82.74
2019-02-04T02:27:22.277Z,82.62
2019-02-04T02:29:52.207Z,82.64
2019-02-04T02:32:22.137Z,82.77
2019-02-04T02:34:51.909Z,83.01
2019-02-04T02:37:21.839Z,83.23
2019-02-04T02:39:52.760Z,83.68
2019-02-04T02:42:22.709Z,83.99
2019-02-04T02:44:52.564Z,84.23
2019-02-04T02:47:22.499Z,84.38
2019-02-04T02:49:52.742Z,84.36
2019-02-04T02:52:22.913Z,84.22
2019-02-04T02:54:52.765Z,84.07
2019-02-04T02:57:23.001Z,83.83
2019-02-04T02:59:52.876Z,83.69
2019-02-04T03:02:22.725Z,83.68
2019-02-04T03:04:52.828Z,83.65
2019-02-04T03:07:22.696Z,83.55
2019-02-04T03:09:53.345Z,83.55
2019-02-04T03:12:23.302Z,83.41
2019-02-04T03:14:53.241Z,83.41
2019-02-04T03:17:23.345Z,83.29
2019-02-04T03:19:53.290Z,83.18
2019-02-04T03:22:23.224Z,83.32
2019-02-04T03:24:53.151Z,83.39
2019-02-04T03:27:23.025Z,83.45
2019-02-04T03:29:53.268Z,83.32
2019-02-04T03:32:23.114Z,83.37
2019-02-04T03:34:53.083Z,83.05
2019-02-04T03:37:22.963Z,83.00
2019-02-04T03:39:52.828Z,83.07
2019-02-04T03:42:22.755Z,83.17
2019-02-04T03:44:53.207Z,83.07
2019-02-04T03:47:23.071Z,82.95
2019-02-04T03:49:52.917Z,83.14
2019-02-04T03:52:22.855Z,83.13
2019-02-04T03:54:53.066Z,82.98
2019-02-04T03:57:22.920Z,83.04
2019-02-04T03:59:52.846Z,83.07
2019-02-04T04:02:22.778Z,82.97
2019-02-04T04:04:52.701Z,82.89
2019-02-04T04:07:22.957Z,82.94
2019-02-04T04:09:52.885Z,83.06
2019-02-04T04:12:22.744Z,83.17
2019-02-04T04:14:52.669Z,83.18
2019-02-04T04:17:22.869Z,83.31
2019-02-04T04:19:52.840Z,83.54
2019-02-04T04:22:23.004Z,83.40
2019-02-04T04:24:53.420Z,83.50
2019-02-04T04:27:23.463Z,83.52
2019-02-04T04:29:53.717Z,83.61
2019-02-04T04:32:24.408Z,83.53
2019-02-04T04:34:54.334Z,83.47
2019-02-04T04:37:24.268Z,83.34
2019-02-04T04:39:54.192Z,83.32
2019-02-04T04:42:23.983Z,83.34
2019-02-04T04:44:53.836Z,83.22
2019-02-04T04:47:24.378Z,83.15
2019-02-04T04:49:54.309Z,83.19
2019-02-04T04:52:24.515Z,83.02
2019-02-04T04:54:54.462Z,83.00
2019-02-04T04:57:24.611Z,83.28
2019-02-04T04:59:54.474Z,83.25
2019-02-04T05:02:24.907Z,83.38
2019-02-04T05:04:54.955Z,83.21
2019-02-04T05:07:24.899Z,83.33
2019-02-04T05:09:54.774Z,83.30
2019-02-04T05:12:24.551Z,83.35
2019-02-04T05:14:54.428Z,83.25
2019-02-04T05:17:24.543Z,83.33
2019-02-04T05:19:54.757Z,83.38
2019-02-04T05:22:24.605Z,83.11
2019-02-04T05:24:54.472Z,83.24
2019-02-04T05:27:24.403Z,83.20
2019-02-04T05:29:54.361Z,83.16
2019-02-04T05:32:24.177Z,83.31
2019-02-04T05:34:57.452Z,83.29
2019-02-04T05:37:26.610Z,82.87
2019-02-04T05:39:56.551Z,82.77
2019-02-04T05:42:26.706Z,82.76
2019-02-04T05:44:56.515Z,82.64
2019-02-04T05:47:26.731Z,82.64
2019-02-04T05:49:56.673Z,82.49
2019-02-04T05:52:26.523Z,82.45
2019-02-04T05:54:56.310Z,82.51
2019-02-04T05:57:26.165Z,82.63
2019-02-04T05:59:56.403Z,82.54
2019-02-04T06:02:26.265Z,82.34
2019-02-04T06:04:56.185Z,82.13
2019-02-04T06:07:26.055Z,81.98
2019-02-04T06:09:55.984Z,82.10
2019-02-04T06:12:25.839Z,82.10
2019-02-04T06:14:56.062Z,82.09
2019-02-04T06:17:25.869Z,82.15
2019-02-04T06:19:56.473Z,82.14
2019-02-04T06:22:26.628Z,82.24
2019-02-04T06:24:56.593Z,82.16
2019-02-04T06:27:27.112Z,82.11
2019-02-04T06:29:57.055Z,82.15
2019-02-04T06:32:26.929Z,82.14
2019-02-04T06:34:56.883Z,82.17
2019-02-04T06:37:26.750Z,81.99
2019-02-04T06:39:56.897Z,82.09
2019-02-04T06:42:26.741Z,82.14
2019-02-04T06:44:56.684Z,82.09
2019-02-04T06:47:26.467Z,82.15
2019-02-04T06:49:56.260Z,81.97
2019-02-04T06:52:26.173Z,82.05
2019-02-04T06:54:56.585Z,81.78
2019-02-04T06:57:26.516Z,82.05
2019-02-04T06:59:56.828Z,81.91
2019-02-04T07:02:27.041Z,82.12
2019-02-04T07:04:56.979Z,82.04
2019-02-04T07:07:26.932Z,81.80
2019-02-04T07:09:57.068Z,81.89
2019-02-04T07:12:27.013Z,81.90
2019-02-04T07:14:56.867Z,81.86
2019-02-04T07:17:26.813Z,81.95
2019-02-04T07:19:56.667Z,81.73
2019-02-04T07:22:26.598Z,81.75
2019-02-04T07:24:56.530Z,81.69
2019-02-04T07:27:26.478Z,81.98
2019-02-04T07:29:56.327Z,81.91
2019-02-04T07:32:26.253Z,81.88
2019-02-04T07:34:56.182Z,81.77
2019-02-04T07:37:26.066Z,81.81
2019-02-04T07:39:55.985Z,81.76
2019-02-04T07:42:25.982Z,81.76
2019-02-04T07:44:56.203Z,81.86
2019-02-04T07:47:26.078Z,81.83
2019-02-04T07:49:56.018Z,81.71
2019-02-04T07:52:26.348Z,81.57
2019-02-04T07:54:56.209Z,81.50
2019-02-04T07:57:26.063Z,81.40
2019-02-04T07:59:57.228Z,81.18
2019-02-04T08:02:27.516Z,80.99
2019-02-04T08:04:57.562Z,81.16
2019-02-04T08:07:27.502Z,80.92
2019-02-04T08:09:57.384Z,81.03
2019-02-04T08:12:27.602Z,81.08
2019-02-04T08:14:57.544Z,80.98
2019-02-04T08:17:27.460Z,80.70
2019-02-04T08:19:57.698Z,80.67
2019-02-04T08:22:27.555Z,80.59
2019-02-04T08:24:57.491Z,80.67
2019-02-04T08:27:27.346Z,80.62
2019-02-04T08:29:57.479Z,80.65
2019-02-04T08:32:27.413Z,80.67
2019-02-04T08:34:57.280Z,80.70
2019-02-04T08:37:27.522Z,80.58
2019-02-04T08:39:57.448Z,80.62
2019-02-04T08:42:27.881Z,80.50
2019-02-04T08:44:57.760Z,80.57
2019-02-04T08:47:27.677Z,80.60
2019-02-04T08:49:58.611Z,80.49
2019-02-04T08:52:29.014Z,80.31
2019-02-04T08:54:58.881Z,79.99
2019-02-04T08:57:29.803Z,79.94
2019-02-04T08:59:59.678Z,79.84
2019-02-04T09:02:29.750Z,79.79
2019-02-04T09:04:59.708Z,79.54
2019-02-04T09:07:29.630Z,79.61
2019-02-04T09:09:59.575Z,79.76
2019-02-04T09:12:29.517Z,79.71
2019-02-04T09:14:59.459Z,79.59
2019-02-04T09:17:29.774Z,79.13
2019-02-04T09:20:09.746Z,79.04
2019-02-04T09:22:31.755Z,78.68
2019-02-04T09:25:02.009Z,78.54
2019-02-04T09:27:31.918Z,78.72
2019-02-04T09:30:01.851Z,78.19
2019-02-04T09:32:32.129Z,78.16
2019-02-04T09:35:02.022Z,77.77
2019-02-04T09:37:31.802Z,77.77
2019-02-04T09:40:02.012Z,77.81
2019-02-04T09:42:32.031Z,77.78
2019-02-04T09:45:01.872Z,77.78
2019-02-04T09:47:33.122Z,77.63
2019-02-04T09:50:03.038Z,76.94
2019-02-04T09:52:32.899Z,77.50
2019-02-04T09:55:02.827Z,77.77
2019-02-04T09:57:32.805Z,77.66
2019-02-04T10:00:03.079Z,77.56
2019-02-04T10:02:34.573Z,77.52
2019-02-04T10:05:05.136Z,77.11
2019-02-04T10:07:35.143Z,76.89
2019-02-04T10:10:05.657Z,76.50
2019-02-04T10:12:35.895Z,76.66
2019-02-04T10:15:08.485Z,76.86
2019-02-04T10:17:38.468Z,76.27
2019-02-04T10:20:09.740Z,76.25
2019-02-04T10:22:39.901Z,75.98
2019-02-04T10:25:11.210Z,75.68
2019-02-04T10:27:41.134Z,75.72
2019-02-04T10:30:14.319Z,75.96
2019-02-04T10:32:44.492Z,75.40
2019-02-04T10:35:16.745Z,75.10
2019-02-04T10:37:48.461Z,74.92
2019-02-04T10:40:20.473Z,74.79
2019-02-04T10:42:50.368Z,74.52
2019-02-04T10:45:20.708Z,74.65
2019-02-04T10:47:50.873Z,74.34
2019-02-04T10:50:32.212Z,73.43
2019-02-04T10:53:02.120Z,73.03
2019-02-04T10:55:32.053Z,72.38
2019-02-04T10:58:02.109Z,72.32
2019-02-04T11:00:33.831Z,71.86
2019-02-04T11:03:05.042Z,71.45
2019-02-04T11:05:36.021Z,71.64
2019-02-04T11:08:07.279Z,71.64
2019-02-04T11:10:37.469Z,71.27
2019-02-04T11:13:12.440Z,69.99
2019-02-04T11:15:43.085Z,69.59
2019-02-04T11:18:14.084Z,69.81
2019-02-04T11:20:44.675Z,69.69
2019-02-04T11:23:15.014Z,69.25
2019-02-04T11:25:45.120Z,69.01
2019-02-04T11:28:15.252Z,68.39
2019-02-04T11:30:56.824Z,68.11
2019-02-04T11:33:26.865Z,66.98
2019-02-04T11:35:56.740Z,67.35
2019-02-04T11:38:26.715Z,67.39
2019-02-04T11:40:57.065Z,67.01
2019-02-04T11:43:28.217Z,66.79
2019-02-04T11:45:58.554Z,66.55
2019-02-04T11:48:28.474Z,66.53
2019-02-04T11:51:08.989Z,66.64
2019-02-04T11:53:32.898Z,66.41
2019-02-04T11:56:02.485Z,66.77
2019-02-04T11:58:32.441Z,66.54
2019-02-04T12:01:02.670Z,66.94
2019-02-04T12:03:32.632Z,67.29
2019-02-04T12:06:02.560Z,66.62
2019-02-04T12:08:32.482Z,66.04
2019-02-04T12:11:14.902Z,65.39
2019-02-04T12:13:45.941Z,65.42
2019-02-04T12:16:16.137Z,64.42
2019-02-04T12:18:49.385Z,63.75
2019-02-04T12:21:21.575Z,63.36
2019-02-04T12:23:50.985Z,63.28
2019-02-04T12:26:20.924Z,61.70
2019-02-04T12:28:50.794Z,62.51
2019-02-04T12:31:21.127Z,62.41
2019-02-04T12:33:52.167Z,62.72
2019-02-04T12:36:22.190Z,62.50
2019-02-04T12:38:52.112Z,61.29
2019-02-04T12:41:22.074Z,60.12
2019-02-04T12:43:52.084Z,58.78
2019-02-04T12:46:22.122Z,58.88
2019-02-04T12:48:51.989Z,58.76
2019-02-04T12:51:32.887Z,57.73
2019-02-04T12:53:53.564Z,57.92
2019-02-04T12:56:23.498Z,57.84
2019-02-04T12:58:55.675Z,58.32
2019-02-04T13:01:24.996Z,58.25
2019-02-04T13:03:54.829Z,58.63
2019-02-04T13:06:24.755Z,59.34
2019-02-04T13:08:54.680Z,59.24
2019-02-04T13:11:24.604Z,59.27
2019-02-04T13:13:54.621Z,59.36
2019-02-04T13:16:24.543Z,57.88
2019-02-04T13:18:54.470Z,57.21
2019-02-04T13:21:24.446Z,57.40
2019-02-04T13:23:54.370Z,57.94
2019-02-04T13:26:24.279Z,58.00
2019-02-04T13:28:54.482Z,57.09
2019-02-04T13:31:24.339Z,56.95
2019-02-04T13:33:54.465Z,57.21
2019-02-04T13:36:24.466Z,57.62
2019-02-04T13:38:54.313Z,57.75
2019-02-04T13:41:24.416Z,56.83
2019-02-04T13:43:54.338Z,57.11
2019-02-04T13:46:24.272Z,56.99
2019-02-04T13:48:54.157Z,56.97
2019-02-04T13:51:24.000Z,55.95
2019-02-04T13:53:57.158Z,56.40
2019-02-04T13:56:25.855Z,55.63
2019-02-04T13:58:55.792Z,55.33
2019-02-04T14:01:25.630Z,55.13
2019-02-04T14:03:55.576Z,54.65
2019-02-04T14:06:25.498Z,54.76
2019-02-04T14:08:55.466Z,53.83
2019-02-04T14:11:25.730Z,52.88
2019-02-04T14:13:55.663Z,53.22
2019-02-04T14:16:25.682Z,53.72
2019-02-04T14:18:55.528Z,52.83
2019-02-04T14:21:25.799Z,52.90
2019-02-04T14:23:55.794Z,54.28
2019-02-04T14:26:28.587Z,54.27
2019-02-04T14:28:57.672Z,53.13
2019-02-04T14:31:27.590Z,52.15
2019-02-04T14:33:58.244Z,53.13
2019-02-04T14:36:28.325Z,53.62
2019-02-04T14:38:58.507Z,53.36
2019-02-04T14:41:30.267Z,54.20
2019-02-04T14:44:39.541Z,54.50
2019-02-04T14:47:39.574Z,54.65
2019-02-04T14:50:17.987Z,55.11
2019-02-04T14:53:12.489Z,54.48
2019-02-04T14:56:18.056Z,54.83
2019-02-04T14:59:33.334Z,54.83
2019-02-04T15:02:40.286Z,54.52
2019-02-04T15:05:38.911Z,54.92
2019-02-04T15:09:05.282Z,55.26
2019-02-04T15:12:04.747Z,55.35
2019-02-04T15:15:11.591Z,55.26
2019-02-04T15:18:14.491Z,54.89
2019-02-04T15:21:05.608Z,55.23
2019-02-04T15:24:13.006Z,55.47
2019-02-04T15:27:21.008Z,55.78
2019-02-04T15:30:06.083Z,56.09
2019-02-04T15:32:46.228Z,56.03
2019-02-04T15:35:57.086Z,55.77
2019-02-04T15:38:54.364Z,55.44
2019-02-04T15:41:57.885Z,55.82
2019-02-04T15:44:49.252Z,56.09
2019-02-04T15:47:49.209Z,56.18
2019-02-04T15:50:41.951Z,56.16
2019-02-04T15:53:11.968Z,56.28
2019-02-04T15:55:41.920Z,56.12
2019-02-04T15:58:11.935Z,56.23
2019-02-04T16:00:43.539Z,56.65
2019-02-04T16:03:13.477Z,56.86
2019-02-04T16:05:43.390Z,56.40
2019-02-04T16:08:13.306Z,57.13
2019-02-04T16:10:43.275Z,57.42
2019-02-04T16:13:13.127Z,56.94
2019-02-04T16:15:43.265Z,56.50
2019-02-04T16:18:13.213Z,56.85
2019-02-04T16:20:43.136Z,56.55
2019-02-04T16:23:13.390Z,56.55
2019-02-04T16:25:43.309Z,56.79
2019-02-04T16:28:13.176Z,56.78
2019-02-04T16:30:43.035Z,57.14
2019-02-04T16:33:13.356Z,57.13
2019-02-04T16:35:43.578Z,56.87
2019-02-04T16:38:13.529Z,57.37
2019-02-04T16:40:43.435Z,57.33
2019-02-04T16:43:13.626Z,56.96
2019-02-04T16:45:44.161Z,56.64
2019-02-04T16:48:14.074Z,56.99
2019-02-04T16:50:43.940Z,57.13
2019-02-04T16:53:13.868Z,57.60
2019-02-04T16:55:43.814Z,57.38
2019-02-04T16:58:14.644Z,57.59
2019-02-04T17:00:44.571Z,57.41
2019-02-04T17:03:15.496Z,57.35
2019-02-04T17:05:45.745Z,57.57
2019-02-04T17:08:15.869Z,57.51
2019-02-04T17:10:45.718Z,57.14
2019-02-04T17:13:15.627Z,57.47
2019-02-04T17:15:45.561Z,57.48
2019-02-04T17:18:15.469Z,57.86
2019-02-04T17:20:45.539Z,58.06
2019-02-04T17:23:22.373Z,57.86
2019-02-04T17:25:46.939Z,57.85
2019-02-04T17:28:17.315Z,57.59
2019-02-04T17:30:47.307Z,57.46
2019-02-04T17:33:17.288Z,57.55
2019-02-04T17:35:47.116Z,58.00
2019-02-04T17:38:17.070Z,57.97
2019-02-04T17:40:46.989Z,58.23
2019-02-04T17:43:16.911Z,57.43
2019-02-04T17:45:46.791Z,57.57
2019-02-04T17:48:16.720Z,57.45
2019-02-04T17:50:46.631Z,58.04
2019-02-04T17:53:16.993Z,58.10
2019-02-04T17:55:47.335Z,58.23
2019-02-04T17:58:17.614Z,58.46
2019-02-04T18:00:52.051Z,59.52
2019-02-04T18:03:23.047Z,59.31
2019-02-04T18:05:53.296Z,59.60
2019-02-04T18:08:23.145Z,60.41
2019-02-04T18:10:52.999Z,60.35
2019-02-04T18:13:22.845Z,61.03
2019-02-04T18:15:52.757Z,61.31
2019-02-04T18:18:22.746Z,61.15
2019-02-04T18:20:54.721Z,61.00
2019-02-04T18:23:24.672Z,61.30
2019-02-04T18:25:54.583Z,61.21
2019-02-04T18:28:24.360Z,61.33
2019-02-04T18:30:54.305Z,61.32
2019-02-04T18:33:24.082Z,61.08
2019-02-04T18:35:53.870Z,60.45
2019-02-04T18:38:23.718Z,59.89
2019-02-04T18:40:53.924Z,59.93
2019-02-04T18:43:24.199Z,59.75
2019-02-04T18:45:53.985Z,59.85
2019-02-04T18:48:24.208Z,59.70
2019-02-04T18:50:54.172Z,59.50
2019-02-04T18:53:24.109Z,59.29
2019-02-04T18:55:54.034Z,59.47
2019-02-04T18:58:23.952Z,59.06
2019-02-04T19:00:53.994Z,59.05
2019-02-04T19:03:26.106Z,58.92
2019-02-04T19:05:56.045Z,58.82
2019-02-04T19:08:26.170Z,59.00
2019-02-04T19:10:56.436Z,59.03
2019-02-04T19:13:35.831Z,59.32
2019-02-04T19:15:58.589Z,59.33
2019-02-04T19:18:29.115Z,59.09
2019-02-04T19:20:59.027Z,58.84
2019-02-04T19:23:28.981Z,58.69
2019-02-04T19:25:58.903Z,58.90
2019-02-04T19:28:28.833Z,59.45
2019-02-04T19:31:08.716Z,59.31
2019-02-04T19:33:39.002Z,59.32
2019-02-04T19:36:10.276Z,59.30
2019-02-04T19:38:40.536Z,59.43
2019-02-04T19:41:10.963Z,59.60
2019-02-04T19:43:40.942Z,59.31
2019-02-04T19:46:10.850Z,59.46
2019-02-04T19:48:40.799Z,59.64
2019-02-04T19:51:10.732Z,59.41
2019-02-04T19:53:40.652Z,59.81
2019-02-04T19:56:10.602Z,60.30
2019-02-04T19:58:40.448Z,59.90
2019-02-04T20:01:10.388Z,60.38
2019-02-04T20:03:40.306Z,60.23
2019-02-04T20:06:10.584Z,60.38
2019-02-04T20:08:40.497Z,60.62
2019-02-04T20:11:10.437Z,60.59
2019-02-04T20:13:40.359Z,60.67
2019-02-04T20:16:10.339Z,60.46
2019-02-04T20:18:40.154Z,60.50
2019-02-04T20:21:10.782Z,60.42
2019-02-04T20:23:40.700Z,60.47
2019-02-04T20:26:11.839Z,60.29
2019-02-04T20:28:41.684Z,59.93
2019-02-04T20:31:11.620Z,60.03
2019-02-04T20:33:41.458Z,60.19
2019-02-04T20:36:11.768Z,60.11
2019-02-04T20:38:41.721Z,59.69
2019-02-04T20:41:11.937Z,59.66
2019-02-04T20:43:41.786Z,59.88
2019-02-04T20:46:11.621Z,59.61
2019-02-04T20:48:41.551Z,59.91
2019-02-04T20:51:11.793Z,59.66
2019-02-04T20:53:41.645Z,59.48
2019-02-04T20:56:11.572Z,59.48
2019-02-04T20:58:41.497Z,59.52
2019-02-04T21:01:11.596Z,59.70
2019-02-04T21:03:41.430Z,59.81
2019-02-04T21:06:11.364Z,59.73
2019-02-04T21:08:41.292Z,59.59
2019-02-04T21:11:11.836Z,59.52
2019-02-04T21:13:41.760Z,59.75
2019-02-04T21:16:11.691Z,59.67
2019-02-04T21:18:42.020Z,59.60
2019-02-04T21:21:12.042Z,59.84
2019-02-04T21:23:41.955Z,59.30
2019-02-04T21:26:13.163Z,59.60
2019-02-04T21:28:43.146Z,59.58
2019-02-04T21:31:13.055Z,59.58
2019-02-04T21:33:43.253Z,59.63
2019-02-04T21:36:13.247Z,59.23
2019-02-04T21:38:43.340Z,59.11
2019-02-04T21:41:13.259Z,59.54
2019-02-04T21:43:43.692Z,59.54
2019-02-04T21:46:14.131Z,59.67
2019-02-04T21:48:44.351Z,59.51
2019-02-04T21:51:14.181Z,59.44
2019-02-04T21:53:44.466Z,59.25
2019-02-04T21:56:14.321Z,59.28
2019-02-04T21:58:44.157Z,59.22
2019-02-04T22:01:16.162Z,59.59
2019-02-04T22:03:45.990Z,60.41
2019-02-04T22:06:15.915Z,60.51
2019-02-04T22:08:45.789Z,60.84
2019-02-04T22:11:16.612Z,60.98
2019-02-04T22:13:46.750Z,60.90
2019-02-04T22:16:18.106Z,61.74
2019-02-04T22:18:49.097Z,62.23
2019-02-04T22:21:18.929Z,62.43
2019-02-04T22:23:48.753Z,62.58
2019-02-04T22:26:18.691Z,62.21
2019-02-04T22:28:48.597Z,62.68
2019-02-04T22:31:18.545Z,62.09
2019-02-04T22:33:48.690Z,62.43
2019-02-04T22:36:18.610Z,62.49
2019-02-04T22:38:48.474Z,62.87
2019-02-04T22:41:18.426Z,63.53
2019-02-04T22:43:48.529Z,64.28
2019-02-04T22:46:18.715Z,64.63
2019-02-04T22:48:48.571Z,65.06
2019-02-04T22:51:18.484Z,65.12
2019-02-04T22:53:49.704Z,65.03
2019-02-04T22:56:19.612Z,64.88
2019-02-04T22:58:52.167Z,65.12
2019-02-04T23:01:46.907Z,65.16
2019-02-04T23:04:17.414Z,64.64
2019-02-04T23:06:48.242Z,64.64
2019-02-04T23:09:18.137Z,64.36
2019-02-04T23:11:48.019Z,64.87
2019-02-04T23:14:18.311Z,65.61
2019-02-04T23:16:48.231Z,65.59
2019-02-04T23:19:18.160Z,65.52
2019-02-04T23:21:48.340Z,65.94
2019-02-04T23:24:18.270Z,66.51
2019-02-04T23:26:48.181Z,66.82
2019-02-04T23:29:18.103Z,67.13
2019-02-04T23:31:48.053Z,67.20
2019-02-04T23:34:18.217Z,67.31
2019-02-04T23:36:48.143Z,67.42
2019-02-04T23:39:18.380Z,67.64
2019-02-04T23:41:48.316Z,67.66
2019-02-04T23:44:18.236Z,67.54
2019-02-04T23:46:48.172Z,67.83
2019-02-04T23:49:18.017Z,67.43
2019-02-04T23:51:47.919Z,67.72
2019-02-04T23:54:17.682Z,67.97
2019-02-04T23:56:47.466Z,67.92
2019-02-04T23:59:17.305Z,68.03
